sensor_id;sensor_type;location;lat;lon;timestamp;temperature;humidity
38902;DHT22;24661;53.566;9.910;2023-08-30T00:00:40;14.50;99.90
38902;DHT22;24661;53.566;9.910;2023-08-30T00:03:07;14.40;99.90
38902;DHT22;24661;53.566;9.910;2023-08-30T00:05:33;14.40;99.90
38902;DHT22;24661;53.566;9.910;2023-08-30T00:07:58;14.40;99.90
38902;DHT22;24661;53.566;9.910;2023-08-30T00:10:24;14.30;99.90
38902;DHT22;24661;53.566;9.910;2023-08-30T00:12:50;14.30;99.90
38902;DHT22;24661;53.566;9.910;2023-08-30T00:15:15;14.20;99.90
38902;DHT22;24661;53.566;9.910;2023-08-30T00:17:41;14.20;99.90
38902;DHT22;24661;53.566;9.910;2023-08-30T00:20:07;14.20;99.90
38902;DHT22;24661;53.566;9.910;2023-08-30T00:22:34;14.10;99.90
38902;DHT22;24661;53.566;9.910;2023-08-30T00:25:00;14.00;99.90
38902;DHT22;24661;53.566;9.910;2023-08-30T00:27:26;14.00;99.90
38902;DHT22;24661;53.566;9.910;2023-08-30T00:29:51;14.00;99.90
38902;DHT22;24661;53.566;9.910;2023-08-30T00:32:17;13.90;99.90
38902;DHT22;24661;53.566;9.910;2023-08-30T00:34:43;13.90;99.90
38902;DHT22;24661;53.566;9.910;2023-08-30T00:37:08;13.90;99.90
38902;DHT22;24661;53.566;9.910;2023-08-30T00:39:36;14.00;99.90
38902;DHT22;24661;53.566;9.910;2023-08-30T00:42:02;13.90;99.90
38902;DHT22;24661;53.566;9.910;2023-08-30T00:44:31;13.90;99.90
38902;DHT22;24661;53.566;9.910;2023-08-30T00:46:57;13.90;99.90
38902;DHT22;24661;53.566;9.910;2023-08-30T00:49:23;13.90;99.90
38902;DHT22;24661;53.566;9.910;2023-08-30T00:51:48;13.80;99.90
38902;DHT22;24661;53.566;9.910;2023-08-30T00:54:14;13.70;99.90
38902;DHT22;24661;53.566;9.910;2023-08-30T00:56:41;13.70;99.90
38902;DHT22;24661;53.566;9.910;2023-08-30T00:59:07;13.70;99.90
38902;DHT22;24661;53.566;9.910;2023-08-30T01:01:32;13.70;99.90
38902;DHT22;24661;53.566;9.910;2023-08-30T01:03:58;13.70;99.90
38902;DHT22;24661;53.566;9.910;2023-08-30T01:06:23;13.70;99.90
38902;DHT22;24661;53.566;9.910;2023-08-30T01:08:49;13.60;99.90
38902;DHT22;24661;53.566;9.910;2023-08-30T01:11:24;13.60;99.90
38902;DHT22;24661;53.566;9.910;2023-08-30T01:14:15;13.60;99.90
38902;DHT22;24661;53.566;9.910;2023-08-30T01:16:43;13.50;99.90
38902;DHT22;24661;53.566;9.910;2023-08-30T01:22:12;13.60;99.90
38902;DHT22;24661;53.566;9.910;2023-08-30T01:27:48;13.60;99.90
38902;DHT22;24661;53.566;9.910;2023-08-30T01:30:16;13.70;99.90
38902;DHT22;24661;53.566;9.910;2023-08-30T01:32:43;13.70;99.90
38902;DHT22;24661;53.566;9.910;2023-08-30T01:35:10;13.70;99.90
38902;DHT22;24661;53.566;9.910;2023-08-30T01:37:36;13.70;99.90
38902;DHT22;24661;53.566;9.910;2023-08-30T01:40:04;13.70;99.90
38902;DHT22;24661;53.566;9.910;2023-08-30T01:42:31;13.70;99.90
38902;DHT22;24661;53.566;9.910;2023-08-30T01:44:58;13.70;99.90
38902;DHT22;24661;53.566;9.910;2023-08-30T01:47:27;13.70;99.90
38902;DHT22;24661;53.566;9.910;2023-08-30T01:49:53;13.70;99.90
38902;DHT22;24661;53.566;9.910;2023-08-30T01:52:20;13.70;99.90
38902;DHT22;24661;53.566;9.910;2023-08-30T01:54:47;13.70;99.90
38902;DHT22;24661;53.566;9.910;2023-08-30T01:57:13;13.70;99.90
38902;DHT22;24661;53.566;9.910;2023-08-30T01:59:39;13.70;99.90
38902;DHT22;24661;53.566;9.910;2023-08-30T02:02:04;13.60;99.90
38902;DHT22;24661;53.566;9.910;2023-08-30T02:04:30;13.60;99.90
38902;DHT22;24661;53.566;9.910;2023-08-30T02:07:03;13.60;99.90
38902;DHT22;24661;53.566;9.910;2023-08-30T02:12:56;13.50;99.90
38902;DHT22;24661;53.566;9.910;2023-08-30T02:15:24;13.60;99.90
38902;DHT22;24661;53.566;9.910;2023-08-30T02:17:50;13.60;99.90
38902;DHT22;24661;53.566;9.910;2023-08-30T02:20:16;13.60;99.90
38902;DHT22;24661;53.566;9.910;2023-08-30T02:22:41;13.50;99.90
38902;DHT22;24661;53.566;9.910;2023-08-30T02:25:07;13.50;99.90
38902;DHT22;24661;53.566;9.910;2023-08-30T02:27:34;13.50;99.90
38902;DHT22;24661;53.566;9.910;2023-08-30T02:30:02;13.50;99.90
38902;DHT22;24661;53.566;9.910;2023-08-30T02:32:28;13.50;99.90
38902;DHT22;24661;53.566;9.910;2023-08-30T02:34:55;13.60;99.90
38902;DHT22;24661;53.566;9.910;2023-08-30T02:37:21;13.60;99.90
38902;DHT22;24661;53.566;9.910;2023-08-30T02:39:47;13.60;99.90
38902;DHT22;24661;53.566;9.910;2023-08-30T02:42:12;13.60;99.90
38902;DHT22;24661;53.566;9.910;2023-08-30T02:44:38;13.70;99.90
38902;DHT22;24661;53.566;9.910;2023-08-30T02:47:03;12.40;99.90
38902;DHT22;24661;53.566;9.910;2023-08-30T02:49:29;13.60;99.90
38902;DHT22;24661;53.566;9.910;2023-08-30T02:51:55;13.70;99.90
38902;DHT22;24661;53.566;9.910;2023-08-30T02:54:20;13.70;99.90
38902;DHT22;24661;53.566;9.910;2023-08-30T02:56:47;13.70;99.90
38902;DHT22;24661;53.566;9.910;2023-08-30T02:59:13;13.70;99.90
38902;DHT22;24661;53.566;9.910;2023-08-30T03:01:39;13.80;99.90
38902;DHT22;24661;53.566;9.910;2023-08-30T03:04:05;13.70;99.90
38902;DHT22;24661;53.566;9.910;2023-08-30T03:06:33;13.80;99.90
38902;DHT22;24661;53.566;9.910;2023-08-30T03:08:58;13.80;99.90
38902;DHT22;24661;53.566;9.910;2023-08-30T03:11:24;13.80;99.90
38902;DHT22;24661;53.566;9.910;2023-08-30T03:13:50;13.80;99.90
38902;DHT22;24661;53.566;9.910;2023-08-30T03:16:16;13.80;99.90
38902;DHT22;24661;53.566;9.910;2023-08-30T03:18:43;13.80;99.90
38902;DHT22;24661;53.566;9.910;2023-08-30T03:21:09;13.80;99.90
38902;DHT22;24661;53.566;9.910;2023-08-30T03:23:36;13.90;99.90
38902;DHT22;24661;53.566;9.910;2023-08-30T03:26:12;13.90;99.90
38902;DHT22;24661;53.566;9.910;2023-08-30T03:28:38;13.90;99.90
38902;DHT22;24661;53.566;9.910;2023-08-30T03:31:18;14.00;99.90
38902;DHT22;24661;53.566;9.910;2023-08-30T03:33:44;14.00;99.90
38902;DHT22;24661;53.566;9.910;2023-08-30T03:36:11;14.00;99.90
38902;DHT22;24661;53.566;9.910;2023-08-30T03:38:37;14.00;99.90
38902;DHT22;24661;53.566;9.910;2023-08-30T03:41:03;14.10;99.90
38902;DHT22;24661;53.566;9.910;2023-08-30T03:43:34;14.10;99.90
38902;DHT22;24661;53.566;9.910;2023-08-30T03:46:00;14.10;99.90
38902;DHT22;24661;53.566;9.910;2023-08-30T03:48:29;14.10;99.90
38902;DHT22;24661;53.566;9.910;2023-08-30T03:50:56;14.20;99.90
38902;DHT22;24661;53.566;9.910;2023-08-30T03:53:22;14.20;99.90
38902;DHT22;24661;53.566;9.910;2023-08-30T03:55:48;14.20;99.90
38902;DHT22;24661;53.566;9.910;2023-08-30T03:58:15;14.20;99.90
38902;DHT22;24661;53.566;9.910;2023-08-30T04:00:40;14.20;99.90
38902;DHT22;24661;53.566;9.910;2023-08-30T04:03:08;14.20;99.90
38902;DHT22;24661;53.566;9.910;2023-08-30T04:05:37;14.20;99.90
38902;DHT22;24661;53.566;9.910;2023-08-30T04:08:06;15.30;99.90
38902;DHT22;24661;53.566;9.910;2023-08-30T04:10:39;14.20;99.90
38902;DHT22;24661;53.566;9.910;2023-08-30T04:13:05;14.20;99.90
38902;DHT22;24661;53.566;9.910;2023-08-30T04:15:38;14.20;99.90
38902;DHT22;24661;53.566;9.910;2023-08-30T04:18:05;14.20;99.90
38902;DHT22;24661;53.566;9.910;2023-08-30T04:20:31;14.20;99.90
38902;DHT22;24661;53.566;9.910;2023-08-30T04:22:57;14.20;99.90
38902;DHT22;24661;53.566;9.910;2023-08-30T04:25:24;14.20;99.90
38902;DHT22;24661;53.566;9.910;2023-08-30T04:27:49;14.20;99.90
38902;DHT22;24661;53.566;9.910;2023-08-30T04:30:16;14.20;99.90
38902;DHT22;24661;53.566;9.910;2023-08-30T04:32:41;14.20;99.90
38902;DHT22;24661;53.566;9.910;2023-08-30T04:35:07;14.20;99.90
38902;DHT22;24661;53.566;9.910;2023-08-30T04:37:33;14.30;99.90
38902;DHT22;24661;53.566;9.910;2023-08-30T04:39:59;14.30;99.90
38902;DHT22;24661;53.566;9.910;2023-08-30T04:42:24;14.30;99.90
38902;DHT22;24661;53.566;9.910;2023-08-30T04:44:50;14.30;99.90
38902;DHT22;24661;53.566;9.910;2023-08-30T04:47:16;14.30;99.90
38902;DHT22;24661;53.566;9.910;2023-08-30T04:49:42;14.30;99.90
38902;DHT22;24661;53.566;9.910;2023-08-30T04:52:07;14.40;99.90
38902;DHT22;24661;53.566;9.910;2023-08-30T04:54:33;14.40;99.90
38902;DHT22;24661;53.566;9.910;2023-08-30T04:56:59;14.40;99.90
38902;DHT22;24661;53.566;9.910;2023-08-30T04:59:24;14.50;99.90
38902;DHT22;24661;53.566;9.910;2023-08-30T05:01:50;14.50;99.90
38902;DHT22;24661;53.566;9.910;2023-08-30T05:04:17;14.50;99.90
38902;DHT22;24661;53.566;9.910;2023-08-30T05:06:42;14.60;99.90
38902;DHT22;24661;53.566;9.910;2023-08-30T05:09:08;14.60;99.90
38902;DHT22;24661;53.566;9.910;2023-08-30T05:11:34;14.70;99.90
38902;DHT22;24661;53.566;9.910;2023-08-30T05:13:59;14.70;99.90
38902;DHT22;24661;53.566;9.910;2023-08-30T05:16:25;14.80;99.90
38902;DHT22;24661;53.566;9.910;2023-08-30T05:18:50;14.80;99.90
38902;DHT22;24661;53.566;9.910;2023-08-30T05:21:16;14.90;99.90
38902;DHT22;24661;53.566;9.910;2023-08-30T05:23:42;14.90;99.90
38902;DHT22;24661;53.566;9.910;2023-08-30T05:26:10;15.00;99.90
38902;DHT22;24661;53.566;9.910;2023-08-30T05:28:39;15.10;99.90
38902;DHT22;24661;53.566;9.910;2023-08-30T05:31:04;15.10;99.90
38902;DHT22;24661;53.566;9.910;2023-08-30T05:33:31;15.20;99.90
38902;DHT22;24661;53.566;9.910;2023-08-30T05:35:57;15.20;99.90
38902;DHT22;24661;53.566;9.910;2023-08-30T05:38:22;15.20;99.90
38902;DHT22;24661;53.566;9.910;2023-08-30T05:40:48;15.30;99.90
38902;DHT22;24661;53.566;9.910;2023-08-30T05:43:13;15.30;99.90
38902;DHT22;24661;53.566;9.910;2023-08-30T05:45:40;15.40;99.90
38902;DHT22;24661;53.566;9.910;2023-08-30T05:48:06;15.50;99.90
38902;DHT22;24661;53.566;9.910;2023-08-30T05:50:31;15.50;99.90
38902;DHT22;24661;53.566;9.910;2023-08-30T05:52:57;15.60;99.90
38902;DHT22;24661;53.566;9.910;2023-08-30T05:55:23;15.70;99.90
38902;DHT22;24661;53.566;9.910;2023-08-30T05:57:48;15.00;99.90
38902;DHT22;24661;53.566;9.910;2023-08-30T06:00:14;15.70;99.90
38902;DHT22;24661;53.566;9.910;2023-08-30T06:02:40;15.90;99.90
38902;DHT22;24661;53.566;9.910;2023-08-30T06:05:06;15.90;99.90
38902;DHT22;24661;53.566;9.910;2023-08-30T06:07:32;15.90;99.90
38902;DHT22;24661;53.566;9.910;2023-08-30T06:09:58;15.90;99.90
38902;DHT22;24661;53.566;9.910;2023-08-30T06:12:23;15.90;99.90
38902;DHT22;24661;53.566;9.910;2023-08-30T06:14:51;15.90;99.90
38902;DHT22;24661;53.566;9.910;2023-08-30T06:17:18;16.10;99.90
38902;DHT22;24661;53.566;9.910;2023-08-30T06:19:47;16.10;99.90
38902;DHT22;24661;53.566;9.910;2023-08-30T06:22:13;16.10;99.90
38902;DHT22;24661;53.566;9.910;2023-08-30T06:24:38;16.10;99.90
38902;DHT22;24661;53.566;9.910;2023-08-30T06:27:04;16.20;99.90
38902;DHT22;24661;53.566;9.910;2023-08-30T06:29:30;16.20;99.90
38902;DHT22;24661;53.566;9.910;2023-08-30T06:31:55;16.30;99.90
38902;DHT22;24661;53.566;9.910;2023-08-30T06:34:21;16.40;99.90
38902;DHT22;24661;53.566;9.910;2023-08-30T06:36:47;16.40;99.90
38902;DHT22;24661;53.566;9.910;2023-08-30T06:39:13;16.40;99.90
38902;DHT22;24661;53.566;9.910;2023-08-30T06:41:39;16.50;99.90
38902;DHT22;24661;53.566;9.910;2023-08-30T06:44:04;16.40;99.90
38902;DHT22;24661;53.566;9.910;2023-08-30T06:46:30;16.40;99.90
38902;DHT22;24661;53.566;9.910;2023-08-30T06:48:55;16.40;99.90
38902;DHT22;24661;53.566;9.910;2023-08-30T06:51:21;16.40;99.90
38902;DHT22;24661;53.566;9.910;2023-08-30T06:53:47;16.40;99.90
38902;DHT22;24661;53.566;9.910;2023-08-30T06:56:12;16.40;99.90
38902;DHT22;24661;53.566;9.910;2023-08-30T06:58:38;16.40;99.90
38902;DHT22;24661;53.566;9.910;2023-08-30T07:01:04;16.40;99.90
38902;DHT22;24661;53.566;9.910;2023-08-30T07:03:29;16.50;99.90
38902;DHT22;24661;53.566;9.910;2023-08-30T07:05:55;16.40;99.90
38902;DHT22;24661;53.566;9.910;2023-08-30T07:08:20;16.40;99.90
38902;DHT22;24661;53.566;9.910;2023-08-30T07:10:46;16.40;99.90
38902;DHT22;24661;53.566;9.910;2023-08-30T07:13:12;16.40;99.90
38902;DHT22;24661;53.566;9.910;2023-08-30T07:15:39;16.30;99.90
38902;DHT22;24661;53.566;9.910;2023-08-30T07:18:06;16.30;99.90
38902;DHT22;24661;53.566;9.910;2023-08-30T07:20:32;16.30;99.90
38902;DHT22;24661;53.566;9.910;2023-08-30T07:22:57;16.40;99.90
38902;DHT22;24661;53.566;9.910;2023-08-30T07:25:23;16.40;99.90
38902;DHT22;24661;53.566;9.910;2023-08-30T07:27:49;16.40;99.90
38902;DHT22;24661;53.566;9.910;2023-08-30T07:30:15;16.50;99.90
38902;DHT22;24661;53.566;9.910;2023-08-30T07:32:40;16.50;99.90
38902;DHT22;24661;53.566;9.910;2023-08-30T07:35:06;16.50;99.90
38902;DHT22;24661;53.566;9.910;2023-08-30T07:37:32;16.50;99.90
38902;DHT22;24661;53.566;9.910;2023-08-30T07:39:58;17.50;99.90
38902;DHT22;24661;53.566;9.910;2023-08-30T07:42:23;16.60;99.90
38902;DHT22;24661;53.566;9.910;2023-08-30T07:44:49;17.00;99.90
38902;DHT22;24661;53.566;9.910;2023-08-30T07:47:14;16.70;99.90
38902;DHT22;24661;53.566;9.910;2023-08-30T07:49:41;16.70;99.90
38902;DHT22;24661;53.566;9.910;2023-08-30T07:52:07;16.90;99.90
38902;DHT22;24661;53.566;9.910;2023-08-30T07:54:36;16.80;99.90
38902;DHT22;24661;53.566;9.910;2023-08-30T07:57:02;17.00;99.90
38902;DHT22;24661;53.566;9.910;2023-08-30T07:59:29;17.00;99.90
38902;DHT22;24661;53.566;9.910;2023-08-30T08:01:55;17.10;99.90
38902;DHT22;24661;53.566;9.910;2023-08-30T08:04:21;17.20;99.90
38902;DHT22;24661;53.566;9.910;2023-08-30T08:06:47;17.20;99.90
38902;DHT22;24661;53.566;9.910;2023-08-30T08:09:12;17.40;99.90
38902;DHT22;24661;53.566;9.910;2023-08-30T08:11:38;17.40;99.90
38902;DHT22;24661;53.566;9.910;2023-08-30T08:14:05;17.50;99.90
38902;DHT22;24661;53.566;9.910;2023-08-30T08:16:30;17.50;99.90
38902;DHT22;24661;53.566;9.910;2023-08-30T08:18:56;17.60;99.90
38902;DHT22;24661;53.566;9.910;2023-08-30T08:21:24;17.50;99.90
38902;DHT22;24661;53.566;9.910;2023-08-30T08:23:50;17.60;99.90
38902;DHT22;24661;53.566;9.910;2023-08-30T08:26:15;17.80;99.90
38902;DHT22;24661;53.566;9.910;2023-08-30T08:28:41;17.80;99.90
38902;DHT22;24661;53.566;9.910;2023-08-30T08:31:07;18.00;99.90
38902;DHT22;24661;53.566;9.910;2023-08-30T08:33:33;18.10;99.90
38902;DHT22;24661;53.566;9.910;2023-08-30T08:35:59;18.10;99.90
38902;DHT22;24661;53.566;9.910;2023-08-30T08:38:24;18.20;99.90
38902;DHT22;24661;53.566;9.910;2023-08-30T08:40:53;18.30;99.90
38902;DHT22;24661;53.566;9.910;2023-08-30T08:43:27;18.50;99.90
38902;DHT22;24661;53.566;9.910;2023-08-30T08:45:57;18.50;99.90
38902;DHT22;24661;53.566;9.910;2023-08-30T08:48:26;18.50;99.90
38902;DHT22;24661;53.566;9.910;2023-08-30T08:50:54;18.60;99.90
38902;DHT22;24661;53.566;9.910;2023-08-30T08:53:19;18.70;99.90
38902;DHT22;24661;53.566;9.910;2023-08-30T08:55:46;18.80;99.90
38902;DHT22;24661;53.566;9.910;2023-08-30T08:58:12;18.90;99.90
38902;DHT22;24661;53.566;9.910;2023-08-30T09:00:38;18.90;99.90
38902;DHT22;24661;53.566;9.910;2023-08-30T09:03:05;18.80;99.90
38902;DHT22;24661;53.566;9.910;2023-08-30T09:05:31;19.30;99.90
38902;DHT22;24661;53.566;9.910;2023-08-30T09:07:58;19.00;99.90
38902;DHT22;24661;53.566;9.910;2023-08-30T09:10:23;18.80;99.90
38902;DHT22;24661;53.566;9.910;2023-08-30T09:12:49;18.90;99.90
38902;DHT22;24661;53.566;9.910;2023-08-30T09:15:14;19.00;99.90
38902;DHT22;24661;53.566;9.910;2023-08-30T09:17:40;19.00;99.90
38902;DHT22;24661;53.566;9.910;2023-08-30T09:20:12;19.10;99.90
38902;DHT22;24661;53.566;9.910;2023-08-30T09:22:42;19.00;99.90
38902;DHT22;24661;53.566;9.910;2023-08-30T09:25:09;19.10;99.90
38902;DHT22;24661;53.566;9.910;2023-08-30T09:27:35;19.10;99.90
38902;DHT22;24661;53.566;9.910;2023-08-30T09:30:03;19.20;99.90
38902;DHT22;24661;53.566;9.910;2023-08-30T09:32:29;19.30;99.90
38902;DHT22;24661;53.566;9.910;2023-08-30T09:34:55;19.30;99.90
38902;DHT22;24661;53.566;9.910;2023-08-30T09:37:23;19.30;99.90
38902;DHT22;24661;53.566;9.910;2023-08-30T09:39:50;19.20;99.90
38902;DHT22;24661;53.566;9.910;2023-08-30T09:42:19;19.30;99.90
38902;DHT22;24661;53.566;9.910;2023-08-30T09:44:44;19.40;99.90
38902;DHT22;24661;53.566;9.910;2023-08-30T09:47:10;19.40;99.90
38902;DHT22;24661;53.566;9.910;2023-08-30T09:49:43;19.50;99.90
38902;DHT22;24661;53.566;9.910;2023-08-30T09:52:13;19.50;99.90
38902;DHT22;24661;53.566;9.910;2023-08-30T09:54:41;19.60;99.90
38902;DHT22;24661;53.566;9.910;2023-08-30T09:57:09;19.60;99.90
38902;DHT22;24661;53.566;9.910;2023-08-30T09:59:37;19.70;99.90
38902;DHT22;24661;53.566;9.910;2023-08-30T10:02:05;19.70;99.90
38902;DHT22;24661;53.566;9.910;2023-08-30T10:04:32;19.70;99.90
38902;DHT22;24661;53.566;9.910;2023-08-30T10:06:58;19.70;99.90
38902;DHT22;24661;53.566;9.910;2023-08-30T10:09:25;19.70;99.90
38902;DHT22;24661;53.566;9.910;2023-08-30T10:11:51;19.70;99.90
38902;DHT22;24661;53.566;9.910;2023-08-30T10:14:17;19.70;99.90
38902;DHT22;24661;53.566;9.910;2023-08-30T10:16:44;19.60;99.90
38902;DHT22;24661;53.566;9.910;2023-08-30T10:19:24;19.60;99.90
38902;DHT22;24661;53.566;9.910;2023-08-30T10:24:21;19.90;99.90
38902;DHT22;24661;53.566;9.910;2023-08-30T10:26:48;19.40;99.90
38902;DHT22;24661;53.566;9.910;2023-08-30T10:29:15;19.50;99.90
38902;DHT22;24661;53.566;9.910;2023-08-30T10:31:42;19.60;99.90
38902;DHT22;24661;53.566;9.910;2023-08-30T10:34:17;19.70;99.90
38902;DHT22;24661;53.566;9.910;2023-08-30T10:36:44;19.70;99.90
38902;DHT22;24661;53.566;9.910;2023-08-30T10:39:13;19.70;99.90
38902;DHT22;24661;53.566;9.910;2023-08-30T10:41:54;19.90;99.90
38902;DHT22;24661;53.566;9.910;2023-08-30T10:44:22;19.30;99.90
38902;DHT22;24661;53.566;9.910;2023-08-30T10:46:53;20.00;99.90
38902;DHT22;24661;53.566;9.910;2023-08-30T10:49:19;20.10;99.90
38902;DHT22;24661;53.566;9.910;2023-08-30T10:51:45;20.10;99.90
38902;DHT22;24661;53.566;9.910;2023-08-30T10:54:15;20.10;99.90
38902;DHT22;24661;53.566;9.910;2023-08-30T10:59:18;20.10;99.90
38902;DHT22;24661;53.566;9.910;2023-08-30T11:01:45;20.30;99.90
38902;DHT22;24661;53.566;9.910;2023-08-30T11:04:14;20.30;99.90
38902;DHT22;24661;53.566;9.910;2023-08-30T11:06:40;20.30;99.90
38902;DHT22;24661;53.566;9.910;2023-08-30T11:09:07;20.20;99.90
38902;DHT22;24661;53.566;9.910;2023-08-30T11:11:35;20.30;99.90
38902;DHT22;24661;53.566;9.910;2023-08-30T11:14:07;20.50;99.90
38902;DHT22;24661;53.566;9.910;2023-08-30T11:16:34;20.50;99.90
38902;DHT22;24661;53.566;9.910;2023-08-30T11:19:03;20.30;99.90
38902;DHT22;24661;53.566;9.910;2023-08-30T11:21:31;20.30;99.90
38902;DHT22;24661;53.566;9.910;2023-08-30T11:23:57;20.40;99.90
38902;DHT22;24661;53.566;9.910;2023-08-30T11:26:24;20.50;99.90
38902;DHT22;24661;53.566;9.910;2023-08-30T11:28:50;20.60;99.90
38902;DHT22;24661;53.566;9.910;2023-08-30T11:31:25;20.60;99.90
38902;DHT22;24661;53.566;9.910;2023-08-30T11:33:57;20.70;99.90
38902;DHT22;24661;53.566;9.910;2023-08-30T11:36:31;20.80;99.90
38902;DHT22;24661;53.566;9.910;2023-08-30T11:38:57;20.70;99.90
38902;DHT22;24661;53.566;9.910;2023-08-30T11:41:24;20.60;99.90
38902;DHT22;24661;53.566;9.910;2023-08-30T11:43:51;20.80;99.90
38902;DHT22;24661;53.566;9.910;2023-08-30T11:46:17;20.70;99.90
38902;DHT22;24661;53.566;9.910;2023-08-30T11:48:44;20.70;99.90
38902;DHT22;24661;53.566;9.910;2023-08-30T11:51:10;20.80;99.90
38902;DHT22;24661;53.566;9.910;2023-08-30T11:53:37;20.90;99.90
38902;DHT22;24661;53.566;9.910;2023-08-30T11:56:04;20.90;99.90
38902;DHT22;24661;53.566;9.910;2023-08-30T11:58:34;20.80;99.90
38902;DHT22;24661;53.566;9.910;2023-08-30T12:01:00;20.80;99.90
38902;DHT22;24661;53.566;9.910;2023-08-30T12:03:27;20.90;99.90
38902;DHT22;24661;53.566;9.910;2023-08-30T12:05:54;20.80;99.90
38902;DHT22;24661;53.566;9.910;2023-08-30T12:08:24;20.70;99.90
38902;DHT22;24661;53.566;9.910;2023-08-30T12:10:51;20.80;99.90
38902;DHT22;24661;53.566;9.910;2023-08-30T12:13:24;21.00;99.90
38902;DHT22;24661;53.566;9.910;2023-08-30T12:15:54;21.00;99.90
38902;DHT22;24661;53.566;9.910;2023-08-30T12:18:29;21.00;99.90
38902;DHT22;24661;53.566;9.910;2023-08-30T12:20:59;21.80;99.90
38902;DHT22;24661;53.566;9.910;2023-08-30T12:23:32;20.80;99.90
38902;DHT22;24661;53.566;9.910;2023-08-30T12:26:02;20.80;99.90
38902;DHT22;24661;53.566;9.910;2023-08-30T12:28:30;20.60;99.90
38902;DHT22;24661;53.566;9.910;2023-08-30T12:30:56;20.70;99.90
38902;DHT22;24661;53.566;9.910;2023-08-30T12:33:22;20.70;99.90
38902;DHT22;24661;53.566;9.910;2023-08-30T12:35:51;20.70;99.90
38902;DHT22;24661;53.566;9.910;2023-08-30T12:38:16;20.60;99.90
38902;DHT22;24661;53.566;9.910;2023-08-30T12:40:45;20.50;99.90
38902;DHT22;24661;53.566;9.910;2023-08-30T12:43:12;20.50;99.90
38902;DHT22;24661;53.566;9.910;2023-08-30T12:45:39;20.70;99.90
38902;DHT22;24661;53.566;9.910;2023-08-30T12:48:05;21.80;99.90
38902;DHT22;24661;53.566;9.910;2023-08-30T12:50:31;20.90;99.90
38902;DHT22;24661;53.566;9.910;2023-08-30T12:52:58;20.90;99.90
38902;DHT22;24661;53.566;9.910;2023-08-30T12:55:23;20.80;99.90
38902;DHT22;24661;53.566;9.910;2023-08-30T12:57:49;20.80;99.90
38902;DHT22;24661;53.566;9.910;2023-08-30T13:00:14;20.90;99.90
38902;DHT22;24661;53.566;9.910;2023-08-30T13:02:40;21.00;99.90
38902;DHT22;24661;53.566;9.910;2023-08-30T13:05:06;20.90;99.90
38902;DHT22;24661;53.566;9.910;2023-08-30T13:07:31;20.90;99.90
38902;DHT22;24661;53.566;9.910;2023-08-30T13:09:58;20.90;99.90
38902;DHT22;24661;53.566;9.910;2023-08-30T13:12:23;20.80;99.90
38902;DHT22;24661;53.566;9.910;2023-08-30T13:14:52;20.90;99.90
38902;DHT22;24661;53.566;9.910;2023-08-30T13:17:17;20.90;99.90
38902;DHT22;24661;53.566;9.910;2023-08-30T13:19:43;21.00;99.90
38902;DHT22;24661;53.566;9.910;2023-08-30T13:22:09;21.10;99.90
38902;DHT22;24661;53.566;9.910;2023-08-30T13:24:35;21.10;99.90
38902;DHT22;24661;53.566;9.910;2023-08-30T13:27:01;21.10;99.90
38902;DHT22;24661;53.566;9.910;2023-08-30T13:29:27;21.00;99.90
38902;DHT22;24661;53.566;9.910;2023-08-30T13:31:53;20.80;99.90
38902;DHT22;24661;53.566;9.910;2023-08-30T13:34:18;20.80;99.90
38902;DHT22;24661;53.566;9.910;2023-08-30T13:36:44;20.80;99.90
38902;DHT22;24661;53.566;9.910;2023-08-30T13:39:10;20.90;99.90
38902;DHT22;24661;53.566;9.910;2023-08-30T13:41:36;21.20;99.90
38902;DHT22;24661;53.566;9.910;2023-08-30T13:44:02;21.30;99.90
38902;DHT22;24661;53.566;9.910;2023-08-30T13:46:29;21.40;99.90
38902;DHT22;24661;53.566;9.910;2023-08-30T13:48:55;21.30;99.90
38902;DHT22;24661;53.566;9.910;2023-08-30T13:51:25;21.30;99.90
38902;DHT22;24661;53.566;9.910;2023-08-30T13:53:52;21.20;99.90
38902;DHT22;24661;53.566;9.910;2023-08-30T13:56:19;21.10;99.90
38902;DHT22;24661;53.566;9.910;2023-08-30T13:58:46;19.90;99.90
38902;DHT22;24661;53.566;9.910;2023-08-30T14:01:11;20.90;99.90
38902;DHT22;24661;53.566;9.910;2023-08-30T14:03:37;20.90;99.90
38902;DHT22;24661;53.566;9.910;2023-08-30T14:06:03;20.80;99.90
38902;DHT22;24661;53.566;9.910;2023-08-30T14:08:29;20.70;99.90
38902;DHT22;24661;53.566;9.910;2023-08-30T14:10:55;20.60;99.90
38902;DHT22;24661;53.566;9.910;2023-08-30T14:13:29;20.60;99.90
38902;DHT22;24661;53.566;9.910;2023-08-30T14:16:02;20.50;99.90
38902;DHT22;24661;53.566;9.910;2023-08-30T14:18:31;20.50;99.90
38902;DHT22;24661;53.566;9.910;2023-08-30T14:20:57;20.40;99.90
38902;DHT22;24661;53.566;9.910;2023-08-30T14:23:27;20.40;99.90
38902;DHT22;24661;53.566;9.910;2023-08-30T14:26:00;20.40;99.90
38902;DHT22;24661;53.566;9.910;2023-08-30T14:28:27;20.40;99.90
38902;DHT22;24661;53.566;9.910;2023-08-30T14:30:53;20.40;99.90
38902;DHT22;24661;53.566;9.910;2023-08-30T14:33:19;20.40;99.90
38902;DHT22;24661;53.566;9.910;2023-08-30T14:35:46;20.40;99.90
38902;DHT22;24661;53.566;9.910;2023-08-30T14:38:11;20.30;99.90
38902;DHT22;24661;53.566;9.910;2023-08-30T14:40:37;20.40;99.90
38902;DHT22;24661;53.566;9.910;2023-08-30T14:43:06;20.30;99.90
38902;DHT22;24661;53.566;9.910;2023-08-30T14:45:32;20.30;99.90
38902;DHT22;24661;53.566;9.910;2023-08-30T14:47:57;20.30;99.90
38902;DHT22;24661;53.566;9.910;2023-08-30T14:50:23;20.30;99.90
38902;DHT22;24661;53.566;9.910;2023-08-30T14:52:52;20.30;99.90
38902;DHT22;24661;53.566;9.910;2023-08-30T14:55:20;20.30;99.90
38902;DHT22;24661;53.566;9.910;2023-08-30T14:57:47;20.20;99.90
38902;DHT22;24661;53.566;9.910;2023-08-30T15:00:13;20.20;99.90
38902;DHT22;24661;53.566;9.910;2023-08-30T15:02:38;20.20;99.90
38902;DHT22;24661;53.566;9.910;2023-08-30T15:05:04;20.00;99.90
38902;DHT22;24661;53.566;9.910;2023-08-30T15:07:30;19.90;99.90
38902;DHT22;24661;53.566;9.910;2023-08-30T15:09:55;19.90;99.90
38902;DHT22;24661;53.566;9.910;2023-08-30T15:12:21;19.90;99.90
38902;DHT22;24661;53.566;9.910;2023-08-30T15:14:46;19.80;99.90
38902;DHT22;24661;53.566;9.910;2023-08-30T15:17:13;19.90;99.90
38902;DHT22;24661;53.566;9.910;2023-08-30T15:19:39;19.80;99.90
38902;DHT22;24661;53.566;9.910;2023-08-30T15:22:05;19.70;99.90
38902;DHT22;24661;53.566;9.910;2023-08-30T15:24:30;19.70;99.90
38902;DHT22;24661;53.566;9.910;2023-08-30T15:26:58;19.70;99.90
38902;DHT22;24661;53.566;9.910;2023-08-30T15:29:24;19.60;99.90
38902;DHT22;24661;53.566;9.910;2023-08-30T15:31:50;19.60;99.90
38902;DHT22;24661;53.566;9.910;2023-08-30T15:34:20;19.50;99.90
38902;DHT22;24661;53.566;9.910;2023-08-30T15:36:46;19.40;99.90
38902;DHT22;24661;53.566;9.910;2023-08-30T15:39:15;19.40;99.90
38902;DHT22;24661;53.566;9.910;2023-08-30T15:41:44;19.40;99.90